sensor_id;sensor_type;location;lat;lon;timestamp;P1;durP1;ratioP1;P2;durP2;ratioP2
59986;SDS011;46181;51.498;5.392;2024-03-08T00:02:31;29.96;;;14.912;;
59986;SDS011;46181;51.498;5.392;2024-03-08T00:07:01;27.848;;;13.788;;
59986;SDS011;46181;51.498;5.392;2024-03-08T00:11:31;30.516;;;13.908;;
59986;SDS011;46181;51.498;5.392;2024-03-08T00:16:01;26.84;;;13.596;;
59986;SDS011;46181;51.498;5.392;2024-03-08T00:20:31;28.816;;;13.908;;
59986;SDS011;46181;51.498;5.392;2024-03-08T00:25:01;28.336;;;14.184;;
59986;SDS011;46181;51.498;5.392;2024-03-08T00:29:31;25.828;;;14.236;;
59986;SDS011;46181;51.498;5.392;2024-03-08T00:34:01;26.54;;;13.488;;
59986;SDS011;46181;51.498;5.392;2024-03-08T00:38:31;30.232;;;13.908;;
59986;SDS011;46181;51.498;5.392;2024-03-08T00:43:01;26.948;;;13.336;;
59986;SDS011;46181;51.498;5.392;2024-03-08T00:47:31;26.248;;;13.724;;
59986;SDS011;46181;51.498;5.392;2024-03-08T00:52:01;25.68;;;13.56;;
59986;SDS011;46181;51.498;5.392;2024-03-08T00:56:31;25.052;;;13.532;;
59986;SDS011;46181;51.498;5.392;2024-03-08T01:01:01;24.292;;;13.188;;
59986;SDS011;46181;51.498;5.392;2024-03-08T01:05:31;23.724;;;13.124;;
59986;SDS011;46181;51.498;5.392;2024-03-08T01:10:01;27.708;;;13.868;;
59986;SDS011;46181;51.498;5.392;2024-03-08T01:14:31;24.66;;;13.368;;
59986;SDS011;46181;51.498;5.392;2024-03-08T01:19:01;23.684;;;12.812;;
59986;SDS011;46181;51.498;5.392;2024-03-08T01:23:31;25.804;;;14.084;;
59986;SDS011;46181;51.498;5.392;2024-03-08T01:28:01;26.372;;;13.656;;
59986;SDS011;46181;51.498;5.392;2024-03-08T01:32:31;24.508;;;13.092;;
59986;SDS011;46181;51.498;5.392;2024-03-08T01:37:01;24.508;;;13.344;;
59986;SDS011;46181;51.498;5.392;2024-03-08T01:41:31;24.524;;;13.416;;
59986;SDS011;46181;51.498;5.392;2024-03-08T01:46:01;26.7;;;14.336;;
59986;SDS011;46181;51.498;5.392;2024-03-08T01:50:31;23.66;;;13.032;;
59986;SDS011;46181;51.498;5.392;2024-03-08T01:55:02;24.312;;;13.08;;
59986;SDS011;46181;51.498;5.392;2024-03-08T01:59:31;22.188;;;13.176;;
59986;SDS011;46181;51.498;5.392;2024-03-08T02:04:01;23.62;;;14.164;;
59986;SDS011;46181;51.498;5.392;2024-03-08T02:08:31;23.572;;;13.052;;
59986;SDS011;46181;51.498;5.392;2024-03-08T02:13:01;25.524;;;14.036;;
59986;SDS011;46181;51.498;5.392;2024-03-08T02:17:31;22.992;;;12.968;;
59986;SDS011;46181;51.498;5.392;2024-03-08T02:22:01;24.832;;;13.856;;
59986;SDS011;46181;51.498;5.392;2024-03-08T02:26:31;23.832;;;12.564;;
59986;SDS011;46181;51.498;5.392;2024-03-08T02:31:01;22.08;;;12.812;;
59986;SDS011;46181;51.498;5.392;2024-03-08T02:35:31;24.808;;;14.064;;
59986;SDS011;46181;51.498;5.392;2024-03-08T02:40:01;26.84399;;;13.848;;
59986;SDS011;46181;51.498;5.392;2024-03-08T02:44:31;22.732;;;13.244;;
59986;SDS011;46181;51.498;5.392;2024-03-08T02:49:01;23.076;;;13.068;;
59986;SDS011;46181;51.498;5.392;2024-03-08T02:53:31;26.916;;;14.552;;
59986;SDS011;46181;51.498;5.392;2024-03-08T02:58:01;24.64;;;13.328;;
59986;SDS011;46181;51.498;5.392;2024-03-08T03:02:31;22.612;;;12.784;;
59986;SDS011;46181;51.498;5.392;2024-03-08T03:07:01;26.16;;;13.244;;
59986;SDS011;46181;51.498;5.392;2024-03-08T03:11:31;23.348;;;13.62;;
59986;SDS011;46181;51.498;5.392;2024-03-08T03:16:01;26.296;;;14.136;;
59986;SDS011;46181;51.498;5.392;2024-03-08T03:20:31;24.336;;;13.312;;
59986;SDS011;46181;51.498;5.392;2024-03-08T03:25:01;23.576;;;13.36;;
59986;SDS011;46181;51.498;5.392;2024-03-08T03:29:31;24.568;;;13.42;;
59986;SDS011;46181;51.498;5.392;2024-03-08T03:34:01;25.792;;;13.928;;
59986;SDS011;46181;51.498;5.392;2024-03-08T03:38:31;27.572;;;14.916;;
59986;SDS011;46181;51.498;5.392;2024-03-08T03:43:02;24.744;;;14.196;;
59986;SDS011;46181;51.498;5.392;2024-03-08T03:47:31;23.728;;;13.688;;
59986;SDS011;46181;51.498;5.392;2024-03-08T03:52:01;26.048;;;14.16;;
59986;SDS011;46181;51.498;5.392;2024-03-08T03:56:31;25.768;;;14.268;;
59986;SDS011;46181;51.498;5.392;2024-03-08T04:01:01;23.296;;;13.332;;
59986;SDS011;46181;51.498;5.392;2024-03-08T04:05:31;24.06;;;13.9;;
59986;SDS011;46181;51.498;5.392;2024-03-08T04:10:01;25.976;;;14.396;;
59986;SDS011;46181;51.498;5.392;2024-03-08T04:14:31;26.148;;;14.804;;
59986;SDS011;46181;51.498;5.392;2024-03-08T04:19:01;25.796;;;14.396;;
59986;SDS011;46181;51.498;5.392;2024-03-08T04:23:32;24.824;;;13.976;;
59986;SDS011;46181;51.498;5.392;2024-03-08T04:28:01;22.708;;;13.62;;
59986;SDS011;46181;51.498;5.392;2024-03-08T04:32:31;22.84;;;13.988;;
59986;SDS011;46181;51.498;5.392;2024-03-08T04:37:01;23.944;;;13.66;;
59986;SDS011;46181;51.498;5.392;2024-03-08T04:41:31;23.84;;;13.152;;
59986;SDS011;46181;51.498;5.392;2024-03-08T04:46:01;23.712;;;13.68;;
59986;SDS011;46181;51.498;5.392;2024-03-08T04:50:31;27.372;;;14.868;;
59986;SDS011;46181;51.498;5.392;2024-03-08T04:55:01;25.716;;;14.276;;
59986;SDS011;46181;51.498;5.392;2024-03-08T04:59:31;23.264;;;13.808;;
59986;SDS011;46181;51.498;5.392;2024-03-08T05:04:01;24.912;;;14.444;;
59986;SDS011;46181;51.498;5.392;2024-03-08T05:08:31;25.372;;;14.264;;
59986;SDS011;46181;51.498;5.392;2024-03-08T05:13:01;26.492;;;14.724;;
59986;SDS011;46181;51.498;5.392;2024-03-08T05:17:32;24.364;;;13.708;;
59986;SDS011;46181;51.498;5.392;2024-03-08T05:22:01;23.476;;;14.548;;
59986;SDS011;46181;51.498;5.392;2024-03-08T05:26:32;26.228;;;14.768;;
59986;SDS011;46181;51.498;5.392;2024-03-08T05:31:01;26.164;;;14.48;;
59986;SDS011;46181;51.498;5.392;2024-03-08T05:35:31;26.936;;;15;;
59986;SDS011;46181;51.498;5.392;2024-03-08T05:40:01;25.852;;;15.26;;
59986;SDS011;46181;51.498;5.392;2024-03-08T05:44:31;26.476;;;14.964;;
59986;SDS011;46181;51.498;5.392;2024-03-08T05:49:01;25;;;14.172;;
59986;SDS011;46181;51.498;5.392;2024-03-08T05:53:31;28.436;;;15.052;;
59986;SDS011;46181;51.498;5.392;2024-03-08T05:58:01;29.388;;;15.216;;
59986;SDS011;46181;51.498;5.392;2024-03-08T06:02:31;25.896;;;14.612;;
59986;SDS011;46181;51.498;5.392;2024-03-08T06:07:01;25.552;;;14.264;;
59986;SDS011;46181;51.498;5.392;2024-03-08T06:11:31;26.732;;;14.748;;
59986;SDS011;46181;51.498;5.392;2024-03-08T06:16:01;28.1;;;15.916;;
59986;SDS011;46181;51.498;5.392;2024-03-08T06:20:31;24.712;;;14.324;;
59986;SDS011;46181;51.498;5.392;2024-03-08T06:25:01;28.004;;;14.868;;
59986;SDS011;46181;51.498;5.392;2024-03-08T06:29:31;27.03201;;;14.772;;
59986;SDS011;46181;51.498;5.392;2024-03-08T06:34:01;27.564;;;15.464;;
59986;SDS011;46181;51.498;5.392;2024-03-08T06:38:31;28.816;;;15.348;;
59986;SDS011;46181;51.498;5.392;2024-03-08T06:43:01;25.796;;;15.072;;
59986;SDS011;46181;51.498;5.392;2024-03-08T06:47:31;29.584;;;15.588;;
59986;SDS011;46181;51.498;5.392;2024-03-08T06:52:01;28.73601;;;15.312;;
59986;SDS011;46181;51.498;5.392;2024-03-08T06:56:31;26.792;;;14.596;;
59986;SDS011;46181;51.498;5.392;2024-03-08T07:01:01;31.048;;;16.248;;
59986;SDS011;46181;51.498;5.392;2024-03-08T07:05:31;27.708;;;15.016;;
59986;SDS011;46181;51.498;5.392;2024-03-08T07:10:01;27.268;;;15.416;;
59986;SDS011;46181;51.498;5.392;2024-03-08T07:14:31;30.624;;;15.34;;
59986;SDS011;46181;51.498;5.392;2024-03-08T07:19:01;31.036;;;15.044;;
59986;SDS011;46181;51.498;5.392;2024-03-08T07:23:31;27.14;;;14.58;;
59986;SDS011;46181;51.498;5.392;2024-03-08T07:28:01;28.732;;;14.852;;
59986;SDS011;46181;51.498;5.392;2024-03-08T07:32:31;27.388;;;14.408;;
59986;SDS011;46181;51.498;5.392;2024-03-08T07:37:01;26.196;;;14.856;;
59986;SDS011;46181;51.498;5.392;2024-03-08T07:41:31;29.412;;;15.536;;
59986;SDS011;46181;51.498;5.392;2024-03-08T07:46:02;26.98;;;14.756;;
59986;SDS011;46181;51.498;5.392;2024-03-08T07:50:31;26.788;;;14.328;;
59986;SDS011;46181;51.498;5.392;2024-03-08T07:55:02;25.236;;;14.656;;
59986;SDS011;46181;51.498;5.392;2024-03-08T07:59:31;26.42;;;14.524;;
59986;SDS011;46181;51.498;5.392;2024-03-08T08:04:01;23.824;;;14.48;;
59986;SDS011;46181;51.498;5.392;2024-03-08T08:08:31;34.228;;;19.18;;
59986;SDS011;46181;51.498;5.392;2024-03-08T08:13:01;25.948;;;14.984;;
59986;SDS011;46181;51.498;5.392;2024-03-08T08:17:31;24.22799;;;13.632;;
59986;SDS011;46181;51.498;5.392;2024-03-08T08:22:01;26.928;;;13.692;;
59986;SDS011;46181;51.498;5.392;2024-03-08T08:26:31;26.052;;;14.488;;
59986;SDS011;46181;51.498;5.392;2024-03-08T08:31:01;21.932;;;13.244;;
59986;SDS011;46181;51.498;5.392;2024-03-08T08:35:31;23.86;;;13.36;;
59986;SDS011;46181;51.498;5.392;2024-03-08T08:40:01;25.804;;;14.032;;
59986;SDS011;46181;51.498;5.392;2024-03-08T08:44:31;23.832;;;13.6;;
59986;SDS011;46181;51.498;5.392;2024-03-08T08:49:01;25.02;;;13.732;;
59986;SDS011;46181;51.498;5.392;2024-03-08T08:53:31;25.128;;;13.896;;
59986;SDS011;46181;51.498;5.392;2024-03-08T08:58:01;23.576;;;13.18;;
59986;SDS011;46181;51.498;5.392;2024-03-08T09:02:31;24.516;;;13.652;;
59986;SDS011;46181;51.498;5.392;2024-03-08T09:07:01;26.624;;;13.556;;
59986;SDS011;46181;51.498;5.392;2024-03-08T09:11:31;25.972;;;14.316;;
59986;SDS011;46181;51.498;5.392;2024-03-08T09:16:02;24.252;;;14.196;;
59986;SDS011;46181;51.498;5.392;2024-03-08T09:20:31;25.408;;;14.548;;
59986;SDS011;46181;51.498;5.392;2024-03-08T09:25:01;23.208;;;13.98;;
59986;SDS011;46181;51.498;5.392;2024-03-08T09:29:31;22.944;;;13.24;;
59986;SDS011;46181;51.498;5.392;2024-03-08T09:34:01;25.996;;;13.448;;
59986;SDS011;46181;51.498;5.392;2024-03-08T09:38:31;23.996;;;13.06;;
59986;SDS011;46181;51.498;5.392;2024-03-08T09:43:01;24.732;;;13.804;;
59986;SDS011;46181;51.498;5.392;2024-03-08T09:47:31;26.412;;;13.86;;
59986;SDS011;46181;51.498;5.392;2024-03-08T09:52:02;22.628;;;12.436;;
59986;SDS011;46181;51.498;5.392;2024-03-08T09:56:32;25.868;;;13.492;;
59986;SDS011;46181;51.498;5.392;2024-03-08T10:01:02;22.032;;;12.168;;
59986;SDS011;46181;51.498;5.392;2024-03-08T10:05:32;23.356;;;13.436;;
59986;SDS011;46181;51.498;5.392;2024-03-08T10:10:02;22.384;;;11.352;;
59986;SDS011;46181;51.498;5.392;2024-03-08T10:14:31;23.256;;;12.992;;
59986;SDS011;46181;51.498;5.392;2024-03-08T10:19:01;22.648;;;12.244;;
59986;SDS011;46181;51.498;5.392;2024-03-08T10:23:31;23.612;;;13.648;;
59986;SDS011;46181;51.498;5.392;2024-03-08T10:28:01;28.43999;;;14.624;;
59986;SDS011;46181;51.498;5.392;2024-03-08T10:32:31;20.884;;;12.296;;
59986;SDS011;46181;51.498;5.392;2024-03-08T10:37:03;20.984;;;11.248;;
59986;SDS011;46181;51.498;5.392;2024-03-08T10:41:32;21.872;;;11.484;;
59986;SDS011;46181;51.498;5.392;2024-03-08T10:46:04;20.9;;;12.38;;
59986;SDS011;46181;51.498;5.392;2024-03-08T10:50:32;20.84;;;11.596;;
59986;SDS011;46181;51.498;5.392;2024-03-08T10:55:02;18.428;;;10.904;;
59986;SDS011;46181;51.498;5.392;2024-03-08T10:59:32;21.764;;;10.996;;
59986;SDS011;46181;51.498;5.392;2024-03-08T11:04:01;18.604;;;10.768;;
59986;SDS011;46181;51.498;5.392;2024-03-08T11:08:31;18.184;;;10.704;;
59986;SDS011;46181;51.498;5.392;2024-03-08T11:13:01;17.772;;;10.4;;
59986;SDS011;46181;51.498;5.392;2024-03-08T11:17:44;18.896;;;10.8;;
59986;SDS011;46181;51.498;5.392;2024-03-08T11:22:02;15.984;;;9.504001;;
59986;SDS011;46181;51.498;5.392;2024-03-08T11:26:32;15.764;;;8.928001;;
59986;SDS011;46181;51.498;5.392;2024-03-08T11:35:32;15.86;;;9.148;;
59986;SDS011;46181;51.498;5.392;2024-03-08T11:40:02;16.448;;;9.084001;;
59986;SDS011;46181;51.498;5.392;2024-03-08T11:44:32;17.424;;;9.884002;;
59986;SDS011;46181;51.498;5.392;2024-03-08T11:49:02;20.276;;;11.76;;
59986;SDS011;46181;51.498;5.392;2024-03-08T11:53:32;15.116;;;8.652;;
59986;SDS011;46181;51.498;5.392;2024-03-08T11:58:08;15.968;;;8.816;;
59986;SDS011;46181;51.498;5.392;2024-03-08T12:02:32;15.008;;;9.224;;
59986;SDS011;46181;51.498;5.392;2024-03-08T12:07:03;15.112;;;9.064001;;
59986;SDS011;46181;51.498;5.392;2024-03-08T12:11:32;16.484;;;9.492002;;
59986;SDS011;46181;51.498;5.392;2024-03-08T12:16:02;15.788;;;9.451999;;
59986;SDS011;46181;51.498;5.392;2024-03-08T12:20:32;15.38;;;9.2;;
59986;SDS011;46181;51.498;5.392;2024-03-08T12:25:08;13.5;;;8.356001;;
59986;SDS011;46181;51.498;5.392;2024-03-08T12:29:32;17.268;;;9.287999;;
59986;SDS011;46181;51.498;5.392;2024-03-08T12:34:02;14.06;;;9.06;;
59986;SDS011;46181;51.498;5.392;2024-03-08T12:38:32;14.116;;;8.656;;
59986;SDS011;46181;51.498;5.392;2024-03-08T12:43:02;14.756;;;8.444001;;
59986;SDS011;46181;51.498;5.392;2024-03-08T12:47:32;13.844;;;8.888001;;
59986;SDS011;46181;51.498;5.392;2024-03-08T12:52:02;14.124;;;8.276;;
59986;SDS011;46181;51.498;5.392;2024-03-08T12:56:32;14.348;;;8.227999;;
59986;SDS011;46181;51.498;5.392;2024-03-08T13:01:02;14.356;;;8.447999;;
59986;SDS011;46181;51.498;5.392;2024-03-08T13:05:32;13.452;;;8.119999;;
59986;SDS011;46181;51.498;5.392;2024-03-08T13:10:02;13.372;;;8.252;;
59986;SDS011;46181;51.498;5.392;2024-03-08T13:14:32;13.6;;;7.744;;
59986;SDS011;46181;51.498;5.392;2024-03-08T13:19:02;14.296;;;8.98;;
59986;SDS011;46181;51.498;5.392;2024-03-08T13:23:32;14.472;;;8.516;;
59986;SDS011;46181;51.498;5.392;2024-03-08T13:28:02;13.712;;;8.316;;
59986;SDS011;46181;51.498;5.392;2024-03-08T13:32:32;14.956;;;8.063999;;
59986;SDS011;46181;51.498;5.392;2024-03-08T13:37:02;16.276;;;8.940002;;
59986;SDS011;46181;51.498;5.392;2024-03-08T13:41:32;14.68;;;8.532001;;
59986;SDS011;46181;51.498;5.392;2024-03-08T13:46:02;13.92;;;7.964;;
59986;SDS011;46181;51.498;5.392;2024-03-08T13:50:32;14.904;;;7.992002;;
59986;SDS011;46181;51.498;5.392;2024-03-08T13:55:02;15.336;;;8.62;;
59986;SDS011;46181;51.498;5.392;2024-03-08T13:59:32;14.384;;;8.104;;
59986;SDS011;46181;51.498;5.392;2024-03-08T14:04:04;14.412;;;8.783999;;
59986;SDS011;46181;51.498;5.392;2024-03-08T14:08:32;13.78;;;8.252;;
59986;SDS011;46181;51.498;5.392;2024-03-08T14:13:02;13.836;;;8.300002;;
59986;SDS011;46181;51.498;5.392;2024-03-08T14:17:32;13.6;;;8.424;;
59986;SDS011;46181;51.498;5.392;2024-03-08T14:22:02;14;;;8.344002;;
59986;SDS011;46181;51.498;5.392;2024-03-08T14:26:32;15.456;;;8.252;;
59986;SDS011;46181;51.498;5.392;2024-03-08T14:31:02;12.628;;;7.936;;
59986;SDS011;46181;51.498;5.392;2024-03-08T14:35:32;13.3;;;9.068002;;
59986;SDS011;46181;51.498;5.392;2024-03-08T14:40:02;15.34;;;8.628;;
59986;SDS011;46181;51.498;5.392;2024-03-08T14:44:32;13.484;;;8.828;;
59986;SDS011;46181;51.498;5.392;2024-03-08T14:49:02;14.064;;;8.308;;
59986;SDS011;46181;51.498;5.392;2024-03-08T14:53:32;13.748;;;7.916001;;
59986;SDS011;46181;51.498;5.392;2024-03-08T14:58:02;13.496;;;7.599999;;
59986;SDS011;46181;51.498;5.392;2024-03-08T15:02:32;12.816;;;7.864;;
59986;SDS011;46181;51.498;5.392;2024-03-08T15:07:02;11.94;;;7.267999;;
59986;SDS011;46181;51.498;5.392;2024-03-08T15:11:32;13.008;;;7.816;;
59986;SDS011;46181;51.498;5.392;2024-03-08T15:16:02;14.552;;;9.875999;;
59986;SDS011;46181;51.498;5.392;2024-03-08T15:20:32;13.2;;;9.379999;;
59986;SDS011;46181;51.498;5.392;2024-03-08T15:25:02;11.664;;;7.644;;
59986;SDS011;46181;51.498;5.392;2024-03-08T15:29:32;13.456;;;7.72;;
59986;SDS011;46181;51.498;5.392;2024-03-08T15:34:02;12.224;;;7.852;;
59986;SDS011;46181;51.498;5.392;2024-03-08T15:38:32;11.716;;;7.316;;
59986;SDS011;46181;51.498;5.392;2024-03-08T15:43:02;12.508;;;7.056;;
59986;SDS011;46181;51.498;5.392;2024-03-08T15:47:32;13.812;;;7.236;;
59986;SDS011;46181;51.498;5.392;2024-03-08T15:52:02;13.752;;;7.799999;;
59986;SDS011;46181;51.498;5.392;2024-03-08T15:56:32;12.224;;;7.476001;;
59986;SDS011;46181;51.498;5.392;2024-03-08T16:01:02;13;;;6.892;;
59986;SDS011;46181;51.498;5.392;2024-03-08T16:05:32;11.436;;;6.539999;;
59986;SDS011;46181;51.498;5.392;2024-03-08T16:10:02;21.412;;;7.428;;
59986;SDS011;46181;51.498;5.392;2024-03-08T16:14:33;13.576;;;7.476;;
59986;SDS011;46181;51.498;5.392;2024-03-08T16:19:02;16.132;;;9.716001;;
59986;SDS011;46181;51.498;5.392;2024-03-08T16:23:32;13.312;;;7.548;;
59986;SDS011;46181;51.498;5.392;2024-03-08T16:28:02;11.844;;;7.099999;;
59986;SDS011;46181;51.498;5.392;2024-03-08T16:32:32;13.384;;;8.436;;
59986;SDS011;46181;51.498;5.392;2024-03-08T16:37:02;12.364;;;7.32;;
59986;SDS011;46181;51.498;5.392;2024-03-08T16:41:32;12.604;;;7.707998;;
59986;SDS011;46181;51.498;5.392;2024-03-08T16:46:02;13.452;;;8.128001;;
59986;SDS011;46181;51.498;5.392;2024-03-08T16:50:32;12.472;;;7.699999;;
59986;SDS011;46181;51.498;5.392;2024-03-08T16:55:02;11.716;;;6.811999;;
59986;SDS011;46181;51.498;5.392;2024-03-08T16:59:32;13.688;;;7.183999;;
59986;SDS011;46181;51.498;5.392;2024-03-08T17:04:02;11.596;;;7.04;;
59986;SDS011;46181;51.498;5.392;2024-03-08T17:08:32;10.884;;;7.064;;
59986;SDS011;46181;51.498;5.392;2024-03-08T17:13:02;13.464;;;7.760001;;
59986;SDS011;46181;51.498;5.392;2024-03-08T17:17:32;14.368;;;8.180001;;
59986;SDS011;46181;51.498;5.392;2024-03-08T17:22:02;12.728;;;6.572;;
59986;SDS011;46181;51.498;5.392;2024-03-08T17:26:32;13.212;;;7.143999;;
59986;SDS011;46181;51.498;5.392;2024-03-08T17:31:02;13.868;;;6.636;;
59986;SDS011;46181;51.498;5.392;2024-03-08T17:35:32;12.432;;;7.079999;;
59986;SDS011;46181;51.498;5.392;2024-03-08T17:40:02;14.46;;;7.359999;;
59986;SDS011;46181;51.498;5.392;2024-03-08T17:44:32;13.156;;;6.904001;;
59986;SDS011;46181;51.498;5.392;2024-03-08T17:49:02;12.792;;;7.280001;;
59986;SDS011;46181;51.498;5.392;2024-03-08T17:53:32;13.036;;;7.42;;
59986;SDS011;46181;51.498;5.392;2024-03-08T17:58:02;13.88;;;8.064001;;
59986;SDS011;46181;51.498;5.392;2024-03-08T18:02:32;13.124;;;7.231999;;
59986;SDS011;46181;51.498;5.392;2024-03-08T18:07:02;14.08;;;7.247999;;
59986;SDS011;46181;51.498;5.392;2024-03-08T18:11:32;13.588;;;7.683998;;
59986;SDS011;46181;51.498;5.392;2024-03-08T18:16:02;12.916;;;7.252;;
59986;SDS011;46181;51.498;5.392;2024-03-08T18:20:32;14.844;;;7.975999;;
59986;SDS011;46181;51.498;5.392;2024-03-08T18:25:02;13.724;;;8.271999;;
59986;SDS011;46181;51.498;5.392;2024-03-08T18:29:32;14.516;;;8.648001;;
59986;SDS011;46181;51.498;5.392;2024-03-08T18:34:02;18.108;;;9.204;;
59986;SDS011;46181;51.498;5.392;2024-03-08T18:38:32;15.828;;;8.884;;
59986;SDS011;46181;51.498;5.392;2024-03-08T18:43:02;15.436;;;8.751998;;
59986;SDS011;46181;51.498;5.392;2024-03-08T18:47:32;17.5;;;9.212;;
59986;SDS011;46181;51.498;5.392;2024-03-08T18:52:02;17.276;;;9.872;;
59986;SDS011;46181;51.498;5.392;2024-03-08T18:56:32;15.784;;;9.120001;;
59986;SDS011;46181;51.498;5.392;2024-03-08T19:01:02;18.244;;;10.28;;
59986;SDS011;46181;51.498;5.392;2024-03-08T19:05:32;18.964;;;10.108;;
59986;SDS011;46181;51.498;5.392;2024-03-08T19:10:02;19.116;;;10.788;;
59986;SDS011;46181;51.498;5.392;2024-03-08T19:14:32;20.376;;;11.028;;
59986;SDS011;46181;51.498;5.392;2024-03-08T19:19:02;26.736;;;15.14;;
59986;SDS011;46181;51.498;5.392;2024-03-08T19:23:32;20.12;;;11.112;;
59986;SDS011;46181;51.498;5.392;2024-03-08T19:28:03;24.096;;;14.132;;
59986;SDS011;46181;51.498;5.392;2024-03-08T19:32:32;18.456;;;10.948;;
59986;SDS011;46181;51.498;5.392;2024-03-08T19:37:02;21.632;;;12.956;;
59986;SDS011;46181;51.498;5.392;2024-03-08T19:41:32;21.18;;;11.72;;
59986;SDS011;46181;51.498;5.392;2024-03-08T19:46:03;21.128;;;11.964;;
59986;SDS011;46181;51.498;5.392;2024-03-08T19:50:32;22.236;;;12.1;;
59986;SDS011;46181;51.498;5.392;2024-03-08T19:55:02;22.628;;;12.812;;
59986;SDS011;46181;51.498;5.392;2024-03-08T19:59:32;20.144;;;11.284;;
59986;SDS011;46181;51.498;5.392;2024-03-08T20:04:02;21.38;;;11.84;;
59986;SDS011;46181;51.498;5.392;2024-03-08T20:08:32;21.752;;;12.108;;
59986;SDS011;46181;51.498;5.392;2024-03-08T20:13:02;25.72;;;13.196;;
59986;SDS011;46181;51.498;5.392;2024-03-08T20:17:32;24.124;;;13.148;;
59986;SDS011;46181;51.498;5.392;2024-03-08T20:22:02;23.684;;;12.352;;
59986;SDS011;46181;51.498;5.392;2024-03-08T20:26:32;22.924;;;12.56;;
59986;SDS011;46181;51.498;5.392;2024-03-08T20:31:02;22.98;;;12.908;;
59986;SDS011;46181;51.498;5.392;2024-03-08T20:35:32;20.652;;;12.6;;
59986;SDS011;46181;51.498;5.392;2024-03-08T20:40:02;22.164;;;12.228;;
59986;SDS011;46181;51.498;5.392;2024-03-08T20:44:32;21.872;;;12.104;;
59986;SDS011;46181;51.498;5.392;2024-03-08T20:49:02;20.78;;;11.74;;
59986;SDS011;46181;51.498;5.392;2024-03-08T20:53:32;27.024;;;12.64;;
59986;SDS011;46181;51.498;5.392;2024-03-08T20:58:02;20.736;;;11.664;;
59986;SDS011;46181;51.498;5.392;2024-03-08T21:02:32;23.448;;;12.148;;
59986;SDS011;46181;51.498;5.392;2024-03-08T21:07:02;23.04;;;12.548;;
59986;SDS011;46181;51.498;5.392;2024-03-08T21:11:32;22.188;;;12.26;;
59986;SDS011;46181;51.498;5.392;2024-03-08T21:16:02;23.056;;;11.812;;
59986;SDS011;46181;51.498;5.392;2024-03-08T21:20:32;22.524;;;11.852;;
59986;SDS011;46181;51.498;5.392;2024-03-08T21:25:02;25.58;;;12.132;;
59986;SDS011;46181;51.498;5.392;2024-03-08T21:29:32;22.824;;;12.84;;
59986;SDS011;46181;51.498;5.392;2024-03-08T21:34:02;22.644;;;11.8;;
59986;SDS011;46181;51.498;5.392;2024-03-08T21:38:32;22.268;;;12.052;;
59986;SDS011;46181;51.498;5.392;2024-03-08T21:43:02;22.232;;;11.716;;
59986;SDS011;46181;51.498;5.392;2024-03-08T21:47:32;21.724;;;11.34;;
59986;SDS011;46181;51.498;5.392;2024-03-08T21:52:07;20.328;;;11.36;;
59986;SDS011;46181;51.498;5.392;2024-03-08T21:56:32;21.888;;;12.016;;
59986;SDS011;46181;51.498;5.392;2024-03-08T22:01:02;21.94;;;12.144;;
59986;SDS011;46181;51.498;5.392;2024-03-08T22:05:32;21.456;;;11.964;;
59986;SDS011;46181;51.498;5.392;2024-03-08T22:10:02;23.92;;;12.132;;
59986;SDS011;46181;51.498;5.392;2024-03-08T22:14:33;24.784;;;12.928;;
59986;SDS011;46181;51.498;5.392;2024-03-08T22:19:02;22.116;;;12.368;;
59986;SDS011;46181;51.498;5.392;2024-03-08T22:23:32;23.176;;;12.684;;
59986;SDS011;46181;51.498;5.392;2024-03-08T22:28:02;23.316;;;12.516;;
59986;SDS011;46181;51.498;5.392;2024-03-08T22:32:32;21.96;;;12.42;;
59986;SDS011;46181;51.498;5.392;2024-03-08T22:37:02;23.128;;;13.024;;
59986;SDS011;46181;51.498;5.392;2024-03-08T22:41:32;23.176;;;12.464;;
59986;SDS011;46181;51.498;5.392;2024-03-08T22:46:02;25.452;;;12.8;;
59986;SDS011;46181;51.498;5.392;2024-03-08T22:50:32;26.84;;;13.18;;
59986;SDS011;46181;51.498;5.392;2024-03-08T22:55:02;25.184;;;12.616;;
59986;SDS011;46181;51.498;5.392;2024-03-08T22:59:32;23.464;;;12.804;;
59986;SDS011;46181;51.498;5.392;2024-03-08T23:04:02;25.832;;;13.032;;
59986;SDS011;46181;51.498;5.392;2024-03-08T23:08:32;22.996;;;12.296;;
59986;SDS011;46181;51.498;5.392;2024-03-08T23:13:02;25.696;;;13.46;;
59986;SDS011;46181;51.498;5.392;2024-03-08T23:17:32;24.28;;;13.784;;
59986;SDS011;46181;51.498;5.392;2024-03-08T23:22:02;23.46;;;13.228;;
59986;SDS011;46181;51.498;5.392;2024-03-08T23:26:32;25.124;;;13.908;;
59986;SDS011;46181;51.498;5.392;2024-03-08T23:31:02;23.332;;;12.752;;
59986;SDS011;46181;51.498;5.392;2024-03-08T23:35:32;24.144;;;12.96;;
59986;SDS011;46181;51.498;5.392;2024-03-08T23:40:02;26.43201;;;13.528;;
59986;SDS011;46181;51.498;5.392;2024-03-08T23:44:32;25.052;;;13.14;;
59986;SDS011;46181;51.498;5.392;2024-03-08T23:49:02;24.756;;;13.328;;
59986;SDS011;46181;51.498;5.392;2024-03-08T23:53:32;25.192;;;13.764;;
59986;SDS011;46181;51.498;5.392;2024-03-08T23:58:02;28.836;;;13.648;;
